Time;durP1;ratioP1;P1;durP2;ratioP2;P2;SDS_P1;SDS_P2;PMS_P1;PMS_P2;Temp;Humidity;BMP_temperature;BMP_pressure;BME280_temperature;BME280_humidity;BME280_pressure;Samples;Min_cycle;Max_cycle;Signal;HPM_P1;HPM_P2
2023/06/05 00:02:05;;;;;;;;;;;;;;;19.88;49.95;100742.78;5388675;32;33111;-75
2023/06/05 00:05:08;;;;;;;;;;;;;;;20.18;48.95;100746.88;5376883;32;33998;-75
2023/06/05 00:08:11;;;;;;;;;;;;;;;20.43;48.71;100736.06;5385804;32;44028;-75
2023/06/05 00:11:13;;;;;;;;;;;;;;;19.91;49.72;100744.41;5365633;32;33790;-77
2023/06/05 00:14:15;;;;;;;;;;;;;;;19.11;52.10;100736.66;5379701;32;33670;-76
2023/06/05 00:17:19;;;;;;;;;;;;;;;19.21;51.83;100743.06;5386950;32;33796;-76
2023/06/05 00:20:21;;;;;;;;;;;;;;;19.95;50.08;100737.84;5378081;32;33851;-76
2023/06/05 00:23:23;;;;;;;;;;;;;;;20.06;49.69;100737.94;5391914;32;34071;-76
2023/06/05 00:26:26;;;;;;;;;;;;;;;20.25;48.68;100735.63;5382477;32;35337;-76
2023/06/05 00:29:28;;;;;;;;;;;;;;;20.01;49.75;100738.25;5374997;32;33691;-76
2023/06/05 00:32:30;;;;;;;;;;;;;;;20.44;48.50;100731.59;5380750;32;34367;-74
2023/06/05 00:35:32;;;;;;;;;;;;;;;20.20;49.00;100735.09;5367768;32;34619;-75
2023/06/05 00:38:35;;;;;;;;;;;;;;;19.93;49.61;100721.97;5378890;32;33648;-75
2023/06/05 00:41:41;;;;;;;;;;;;;;;19.82;49.92;100724.56;5371404;32;36263;-76
2023/06/05 00:44:44;;;;;;;;;;;;;;;19.74;50.30;100729.59;5388722;32;45507;-75
2023/06/05 00:47:46;;;;;;;;;;;;;;;19.74;49.98;100729.59;5371422;32;33611;-75
2023/06/05 00:50:49;;;;;;;;;;;;;;;20.07;49.07;100728.97;5395764;32;34321;-75
2023/06/05 00:53:51;;;;;;;;;;;;;;;19.97;49.19;100731.47;5389406;32;34456;-75
2023/06/05 00:56:53;;;;;;;;;;;;;;;19.71;49.97;100728.03;5366174;32;34434;-77
2023/06/05 00:59:55;;;;;;;;;;;;;;;20.08;48.94;100725.31;5388368;32;33043;-75
2023/06/05 01:02:58;;;;;;;;;;;;;;;20.57;47.44;100718.19;5372139;32;33789;-76
2023/06/05 01:06:03;;;;;;;;;;;;;;;19.76;49.44;100725.00;5384735;32;33852;-76
2023/06/05 01:09:05;;;;;;;;;;;;;;;20.25;47.58;100724.09;5365992;32;34015;-75
2023/06/05 01:12:26;;;;;;;;;;;;;;;21.00;45.63;100713.94;5386969;32;33297;-76
2023/06/05 01:15:29;;;;;;;;;;;;;;;20.73;45.77;100718.72;5388819;32;34006;-76
2023/06/05 01:18:31;;;;;;;;;;;;;;;20.52;46.51;100718.53;5365780;32;33903;-74
2023/06/05 01:21:35;;;;;;;;;;;;;;;20.49;46.60;100716.97;5390792;32;33711;-75
2023/06/05 01:24:40;;;;;;;;;;;;;;;20.44;47.02;100721.75;5351530;32;34312;-76
2023/06/05 01:27:48;;;;;;;;;;;;;;;20.59;46.47;100718.91;5388278;32;44070;-76
2023/06/05 01:31:00;;;;;;;;;;;;;;;20.46;46.42;100719.84;5380931;32;33387;-76
2023/06/05 01:34:05;;;;;;;;;;;;;;;19.58;49.04;100724.53;5355249;32;34691;-76
2023/06/05 01:37:08;;;;;;;;;;;;;;;19.80;48.67;100723.81;5388101;32;34244;-76
2023/06/05 01:40:11;;;;;;;;;;;;;;;19.67;48.98;100721.19;5375090;32;35276;-75
2023/06/05 01:43:13;;;;;;;;;;;;;;;19.87;48.45;100716.22;5373809;32;33268;-76
2023/06/05 01:46:18;;;;;;;;;;;;;;;19.90;48.40;100721.31;5380732;32;33666;-76
2023/06/05 01:49:21;;;;;;;;;;;;;;;20.93;45.82;100711.84;5371738;32;33878;-76
2023/06/05 01:52:23;;;;;;;;;;;;;;;19.70;48.74;100720.94;5384639;32;33457;-75
2023/06/05 01:55:26;;;;;;;;;;;;;;;19.32;49.99;100718.34;5379001;32;33154;-76
2023/06/05 01:58:28;;;;;;;;;;;;;;;19.62;49.01;100719.81;5376842;32;33704;-74
2023/06/05 02:01:31;;;;;;;;;;;;;;;20.22;47.67;100709.16;5378801;32;33006;-75
2023/06/05 02:04:34;;;;;;;;;;;;;;;19.51;49.62;100720.53;5385395;32;34115;-75
2023/06/05 02:07:39;;;;;;;;;;;;;;;20.08;48.34;100708.47;5366514;32;35439;-75
2023/06/05 02:10:43;;;;;;;;;;;;;;;19.21;50.55;100713.75;5381265;32;44896;-75
2023/06/05 02:13:49;;;;;;;;;;;;;;;19.07;51.04;100715.69;5374612;32;33657;-76
2023/06/05 02:16:53;;;;;;;;;;;;;;;19.58;49.76;100711.19;5380768;32;33852;-76
2023/06/05 02:19:55;;;;;;;;;;;;;;;19.30;50.40;100708.72;5388225;32;34234;-76
2023/06/05 02:22:58;;;;;;;;;;;;;;;20.00;48.80;100709.03;5384767;32;34343;-75
2023/06/05 02:26:00;;;;;;;;;;;;;;;20.55;47.33;100700.47;5380429;32;33825;-75
2023/06/05 02:29:02;;;;;;;;;;;;;;;19.92;49.03;100712.28;5366504;32;33746;-75
2023/06/05 02:32:06;;;;;;;;;;;;;;;20.14;48.30;100702.69;5379966;32;34084;-75
2023/06/05 02:35:08;;;;;;;;;;;;;;;19.76;49.51;100711.66;5389406;32;34620;-76
2023/06/05 02:38:12;;;;;;;;;;;;;;;19.45;50.26;100711.19;5376176;32;36074;-76
2023/06/05 02:41:15;;;;;;;;;;;;;;;19.72;49.63;100712.88;5383119;32;34429;-76
2023/06/05 02:44:17;;;;;;;;;;;;;;;19.99;49.27;100720.69;5364010;32;33929;-76
2023/06/05 02:47:19;;;;;;;;;;;;;;;19.77;49.88;100710.69;5386841;32;33049;-75
2023/06/05 02:50:22;;;;;;;;;;;;;;;19.49;50.58;100709.97;5379987;32;33715;-76
2023/06/05 02:53:24;;;;;;;;;;;;;;;19.30;51.35;100712.25;5380401;32;34360;-76
2023/06/05 02:56:26;;;;;;;;;;;;;;;19.85;50.06;100719.00;5389294;32;33810;-76
2023/06/05 02:59:31;;;;;;;;;;;;;;;19.69;50.45;100713.06;5385254;32;34231;-75
2023/06/05 03:02:36;;;;;;;;;;;;;;;19.54;50.82;100711.47;5391276;32;34135;-75
2023/06/05 03:05:38;;;;;;;;;;;;;;;19.39;51.30;100713.44;5376491;32;33553;-76
2023/06/05 03:08:40;;;;;;;;;;;;;;;19.67;50.75;100707.84;5384414;32;36808;-75
2023/06/05 03:11:42;;;;;;;;;;;;;;;19.37;51.42;100712.66;5383736;32;35272;-75
2023/06/05 03:14:44;;;;;;;;;;;;;;;20.08;49.29;100703.97;5379924;32;34283;-75
2023/06/05 03:17:47;;;;;;;;;;;;;;;19.47;51.24;100705.75;5375589;32;33796;-74
2023/06/05 03:20:51;;;;;;;;;;;;;;;20.05;49.46;100709.56;5377128;32;33889;-75
2023/06/05 03:23:53;;;;;;;;;;;;;;;20.12;49.22;100699.28;5388439;32;32191;-75
2023/06/05 03:26:55;;;;;;;;;;;;;;;20.26;49.25;100699.94;5379340;32;33473;-75
2023/06/05 03:29:58;;;;;;;;;;;;;;;20.57;47.96;100696.84;5379245;32;34025;-76
2023/06/05 03:33:01;;;;;;;;;;;;;;;20.71;47.46;100692.13;5383714;32;33825;-75
2023/06/05 03:36:05;;;;;;;;;;;;;;;20.65;47.72;100691.75;5376390;32;33591;-75
2023/06/05 03:39:07;;;;;;;;;;;;;;;20.11;49.13;100690.44;5372631;32;33701;-75
2023/06/05 03:42:10;;;;;;;;;;;;;;;20.29;48.88;100693.56;5361223;32;33115;-75
2023/06/05 03:45:13;;;;;;;;;;;;;;;20.42;48.68;100698.81;5388280;32;44660;-75
2023/06/05 03:48:15;;;;;;;;;;;;;;;20.46;48.54;100703.81;5376793;32;34146;-75
2023/06/05 03:51:19;;;;;;;;;;;;;;;20.59;48.42;100708.25;5382746;32;34261;-76
2023/06/05 03:54:25;;;;;;;;;;;;;;;20.31;48.77;100712.13;5387983;32;33423;-76
2023/06/05 03:57:27;;;;;;;;;;;;;;;19.86;50.31;100723.38;5377923;32;33712;-75
2023/06/05 04:00:29;;;;;;;;;;;;;;;20.39;48.85;100717.72;5389344;32;34296;-75
2023/06/05 04:03:31;;;;;;;;;;;;;;;20.40;48.83;100712.25;5380121;32;34166;-76
2023/06/05 04:06:34;;;;;;;;;;;;;;;19.75;50.69;100724.16;5399498;32;33632;-76
2023/06/05 04:09:36;;;;;;;;;;;;;;;20.40;49.09;100714.94;5372905;32;33393;-75
2023/06/05 04:12:39;;;;;;;;;;;;;;;19.92;50.22;100727.44;5387830;32;33567;-76
2023/06/05 04:15:41;;;;;;;;;;;;;;;21.02;47.65;100714.66;5388904;32;44650;-76
2023/06/05 04:18:43;;;;;;;;;;;;;;;20.82;47.89;100720.72;5379446;32;34665;-75
2023/06/05 04:21:45;;;;;;;;;;;;;;;20.85;47.82;100714.25;5392166;32;33329;-76
2023/06/05 04:24:47;;;;;;;;;;;;;;;21.39;47.39;100724.34;5378792;32;34264;-75
2023/06/05 04:27:51;;;;;;;;;;;;;;;21.73;46.48;100711.81;5389005;32;34025;-76
2023/06/05 04:30:55;;;;;;;;;;;;;;;22.10;45.50;100712.38;5382294;32;33136;-76
2023/06/05 04:33:58;;;;;;;;;;;;;;;20.88;48.35;100714.91;5380904;32;33533;-76
2023/06/05 04:36:59;;;;;;;;;;;;;;;21.58;46.71;100712.06;5390762;32;33713;-76
2023/06/05 04:40:09;;;;;;;;;;;;;;;21.64;46.73;100713.41;5377487;32;34502;-76
2023/06/05 04:43:12;;;;;;;;;;;;;;;20.81;48.84;100727.88;5388018;32;46003;-76
2023/06/05 04:46:14;;;;;;;;;;;;;;;21.39;47.93;100719.84;5366176;32;35306;-77
2023/06/05 04:49:16;;;;;;;;;;;;;;;21.48;47.16;100723.59;5388322;32;33532;-76
2023/06/05 04:52:20;;;;;;;;;;;;;;;21.21;47.20;100722.09;5383173;32;34174;-75
2023/06/05 04:55:22;;;;;;;;;;;;;;;21.80;46.32;100719.19;5380666;32;35449;-76
2023/06/05 04:58:24;;;;;;;;;;;;;;;21.03;48.33;100724.38;5385280;32;33204;-76
2023/06/05 05:01:27;;;;;;;;;;;;;;;21.52;46.98;100731.28;5366719;32;33807;-74
2023/06/05 05:04:29;;;;;;;;;;;;;;;21.33;47.26;100731.03;5389216;32;34390;-75
2023/06/05 05:07:32;;;;;;;;;;;;;;;21.56;46.98;100718.50;5375031;32;33627;-76
2023/06/05 05:10:34;;;;;;;;;;;;;;;21.31;47.07;100724.94;5361394;32;33629;-75
2023/06/05 05:13:37;;;;;;;;;;;;;;;21.62;47.03;100716.19;5369793;32;34093;-75
2023/06/05 05:16:40;;;;;;;;;;;;;;;22.64;44.15;100722.97;5374523;32;34020;-78
2023/06/05 05:19:42;;;;;;;;;;;;;;;22.63;43.45;100715.94;5374493;32;44774;-79
2023/06/05 05:22:45;;;;;;;;;;;;;;;22.67;43.00;100722.75;5378548;32;33528;-79
2023/06/05 05:25:48;;;;;;;;;;;;;;;22.10;44.58;100718.56;5387773;32;33175;-78
2023/06/05 05:28:50;;;;;;;;;;;;;;;22.31;44.08;100718.63;5361335;32;34189;-78
2023/06/05 05:31:52;;;;;;;;;;;;;;;22.21;44.11;100720.34;5378239;32;33142;-80
2023/06/05 05:34:55;;;;;;;;;;;;;;;22.52;43.68;100715.13;5386619;32;33892;-74
2023/06/05 05:37:57;;;;;;;;;;;;;;;22.46;43.79;100710.28;5364550;32;32835;-72
2023/06/05 05:40:59;;;;;;;;;;;;;;;22.95;42.55;100712.38;5371375;32;36494;-73
2023/06/05 05:44:01;;;;;;;;;;;;;;;22.35;43.70;100721.91;5379257;32;33072;-69
2023/06/05 05:47:03;;;;;;;;;;;;;;;23.19;41.62;100720.12;5346865;32;871422;-77
2023/06/05 05:50:06;;;;;;;;;;;;;;;23.23;41.60;100729.59;5370812;32;35718;-85
2023/06/05 05:53:08;;;;;;;;;;;;;;;22.47;42.36;100730.72;5384808;32;34565;-76
2023/06/05 05:56:10;;;;;;;;;;;;;;;22.62;42.55;100732.13;5377562;32;43179;-76
2023/06/05 05:59:12;;;;;;;;;;;;;;;21.84;43.74;100731.38;5370105;32;34050;-85
2023/06/05 06:02:15;;;;;;;;;;;;;;;22.26;43.55;100731.53;5388025;32;32787;-73
2023/06/05 06:05:18;;;;;;;;;;;;;;;22.67;42.96;100733.44;5375305;32;32812;-82
2023/06/05 06:08:20;;;;;;;;;;;;;;;22.98;41.77;100722.81;5360452;32;31655;-80
2023/06/05 06:11:22;;;;;;;;;;;;;;;23.33;40.79;100732.34;5370624;32;33308;-68
2023/06/05 06:14:25;;;;;;;;;;;;;;;22.82;41.87;100727.78;5387070;32;32928;-72
2023/06/05 06:17:29;;;;;;;;;;;;;;;22.77;42.54;100729.97;5381431;32;32931;-83
2023/06/05 06:20:33;;;;;;;;;;;;;;;23.30;40.85;100722.72;5382473;32;33068;-70
2023/06/05 06:23:35;;;;;;;;;;;;;;;23.71;40.15;100729.84;5373090;32;34335;-76
2023/06/05 06:26:38;;;;;;;;;;;;;;;23.05;41.35;100728.50;5381778;32;33072;-68
2023/06/05 06:29:48;;;;;;;;;;;;;;;23.69;40.09;100718.37;5395379;32;44109;-70
2023/06/05 06:32:53;;;;;;;;;;;;;;;23.36;40.70;100721.34;5369110;32;34313;-70
2023/06/05 06:35:58;;;;;;;;;;;;;;;23.91;39.77;100719.16;5384436;32;34245;-72
2023/06/05 06:39:00;;;;;;;;;;;;;;;23.48;40.86;100714.91;5376830;32;33039;-72
2023/06/05 06:42:02;;;;;;;;;;;;;;;24.01;39.90;100711.97;5367184;32;32023;-79
2023/06/05 06:45:05;;;;;;;;;;;;;;;23.92;40.35;100720.88;5395077;32;32970;-69
2023/06/05 06:48:07;;;;;;;;;;;;;;;24.60;39.06;100713.72;5388882;32;35799;-66
2023/06/05 06:51:09;;;;;;;;;;;;;;;24.08;40.12;100721.16;5389963;32;32925;-71
2023/06/05 06:54:12;;;;;;;;;;;;;;;23.16;42.65;100717.72;5387495;32;44409;-70
2023/06/05 06:57:15;;;;;;;;;;;;;;;24.21;40.77;100707.47;5389188;32;34679;-68
2023/06/05 07:00:17;;;;;;;;;;;;;;;23.99;40.33;100722.84;5394984;32;33160;-77
2023/06/05 07:03:19;;;;;;;;;;;;;;;23.45;42.00;100710.66;5385719;32;33190;-77
2023/06/05 07:06:22;;;;;;;;;;;;;;;23.20;42.17;100709.28;5388041;32;33391;-73
2023/06/05 07:09:24;;;;;;;;;;;;;;;23.14;42.52;100708.97;5368008;32;34305;-74
2023/06/05 07:12:27;;;;;;;;;;;;;;;23.17;42.68;100714.03;5387084;32;33232;-67
2023/06/05 07:15:28;;;;;;;;;;;;;;;23.24;42.37;100721.41;5384560;32;33089;-75
2023/06/05 07:18:30;;;;;;;;;;;;;;;23.38;42.03;100714.00;5390999;32;32955;-74
2023/06/05 07:21:37;;;;;;;;;;;;;;;23.29;42.17;100712.97;5378048;32;33190;-76
2023/06/05 07:24:40;;;;;;;;;;;;;;;22.98;40.63;100701.37;5380364;32;32673;-74
2023/06/05 07:27:43;;;;;;;;;;;;;;;24.36;38.35;100710.66;5387381;32;44963;-71
2023/06/05 07:30:45;;;;;;;;;;;;;;;23.76;40.82;100719.56;5390397;32;34603;-70
2023/06/05 07:33:47;;;;;;;;;;;;;;;23.78;38.97;100725.63;5389779;32;32775;-75
2023/06/05 07:36:51;;;;;;;;;;;;;;;24.21;38.02;100727.12;5392234;32;32727;-76
2023/06/05 07:39:53;;;;;;;;;;;;;;;23.85;38.27;100723.25;5392377;32;33202;-75
2023/06/05 07:42:56;;;;;;;;;;;;;;;24.32;36.97;100726.16;5379739;32;33178;-75
2023/06/05 07:45:58;;;;;;;;;;;;;;;24.36;36.54;100721.37;5383318;32;33065;-73
2023/06/05 07:49:00;;;;;;;;;;;;;;;23.89;37.62;100724.66;5384262;32;33115;-81
2023/06/05 07:52:02;;;;;;;;;;;;;;;24.07;37.09;100724.00;5378292;32;33046;-85
2023/06/05 07:55:04;;;;;;;;;;;;;;;24.65;35.77;100719.53;5389903;32;34045;-67
2023/06/05 07:58:07;;;;;;;;;;;;;;;24.72;35.55;100722.50;5391402;32;32855;-75
2023/06/05 08:01:09;;;;;;;;;;;;;;;24.09;37.11;100730.06;5385083;32;34564;-75
2023/06/05 08:04:12;;;;;;;;;;;;;;;23.78;38.07;100724.78;5389831;32;44580;-72
2023/06/05 08:07:16;;;;;;;;;;;;;;;24.27;37.83;100723.88;5391608;32;32109;-71
2023/06/05 08:10:18;;;;;;;;;;;;;;;24.22;38.23;100722.63;5394645;32;33020;-84
2023/06/05 08:13:20;;;;;;;;;;;;;;;23.52;39.71;100721.69;5383124;32;33237;-75
2023/06/05 08:16:23;;;;;;;;;;;;;;;23.54;39.36;100721.56;5378344;32;32889;-80
2023/06/05 08:19:25;;;;;;;;;;;;;;;23.67;39.49;100724.87;5390894;32;33505;-85
2023/06/05 08:22:28;;;;;;;;;;;;;;;23.26;40.59;100729.34;5365394;32;33833;-75
2023/06/05 08:25:30;;;;;;;;;;;;;;;23.98;38.72;100723.84;5395950;32;34602;-77
2023/06/05 08:28:32;;;;;;;;;;;;;;;23.86;39.42;100729.47;5379596;32;33525;-72
2023/06/05 08:31:36;;;;;;;;;;;;;;;23.70;39.33;100720.09;5382665;32;38147;-74
2023/06/05 08:34:38;;;;;;;;;;;;;;;23.35;40.21;100730.38;5380879;32;33161;-77
2023/06/05 08:37:40;;;;;;;;;;;;;;;23.58;39.58;100728.37;5384610;32;36244;-72
2023/06/05 08:40:43;;;;;;;;;;;;;;;23.57;39.92;100727.50;5382128;32;33140;-71
2023/06/05 08:43:45;;;;;;;;;;;;;;;24.32;38.70;100726.16;5385569;32;33917;-75
2023/06/05 08:46:47;;;;;;;;;;;;;;;23.75;39.66;100728.56;5392838;32;33166;-72
2023/06/05 08:49:50;;;;;;;;;;;;;;;24.28;38.79;100732.78;5363404;32;32941;-81
2023/06/05 08:52:52;;;;;;;;;;;;;;;23.65;39.67;100730.41;5382726;32;35487;-73
2023/06/05 08:55:55;;;;;;;;;;;;;;;23.34;40.81;100732.19;5373982;32;33054;-78
2023/06/05 08:58:58;;;;;;;;;;;;;;;23.96;39.75;100731.19;5360892;32;32667;-83
2023/06/05 09:02:00;;;;;;;;;;;;;;;23.88;39.89;100733.69;5388664;32;33707;-72
2023/06/05 09:05:03;;;;;;;;;;;;;;;24.37;38.99;100720.38;5385409;32;33097;-70
2023/06/05 09:08:05;;;;;;;;;;;;;;;23.93;39.87;100728.78;5391012;32;33097;-73
2023/06/05 09:11:23;;;;;;;;;;;;;;;25.12;37.47;100715.09;5372362;32;34644;-75
2023/06/05 09:14:25;;;;;;;;;;;;;;;23.69;40.38;100721.06;5386008;32;34197;-73
2023/06/05 09:17:27;;;;;;;;;;;;;;;24.64;38.51;100714.31;5377075;32;34737;-72
2023/06/05 09:20:34;;;;;;;;;;;;;;;24.13;39.91;100721.59;5377622;32;34546;-73
2023/06/05 09:23:37;;;;;;;;;;;;;;;25.35;37.90;100710.19;5381708;32;32948;-73
2023/06/05 09:27:06;;;;;;;;;;;;;;;26.40;36.17;100711.63;5374799;32;34302;-76
2023/06/05 09:30:08;;;;;;;;;;;;;;;26.27;36.16;100709.28;5380639;32;32662;-75
2023/06/05 09:33:10;;;;;;;;;;;;;;;25.99;36.11;100697.72;5391976;32;35566;-76
2023/06/05 09:36:13;;;;;;;;;;;;;;;26.94;34.88;100693.53;5381361;32;46255;-82
2023/06/05 09:39:16;;;;;;;;;;;;;;;26.63;35.00;100706.59;5383306;32;32300;-81
2023/06/05 09:42:17;;;;;;;;;;;;;;;27.78;32.70;100700.91;5385838;32;33137;-68
2023/06/05 09:45:20;;;;;;;;;;;;;;;26.84;34.77;100715.19;5387112;32;33373;-74
2023/06/05 09:48:22;;;;;;;;;;;;;;;27.32;33.44;100704.91;5381244;32;36058;-78
2023/06/05 09:51:25;;;;;;;;;;;;;;;27.58;32.90;100710.28;5357106;32;33539;-74
2023/06/05 09:54:28;;;;;;;;;;;;;;;27.03;32.68;100697.97;5372938;32;34115;-85
2023/06/05 09:57:30;;;;;;;;;;;;;;;27.56;32.06;100696.06;5364019;32;33347;-71
2023/06/05 10:00:32;;;;;;;;;;;;;;;27.38;32.34;100701.56;5371063;32;34839;-77
2023/06/05 10:03:35;;;;;;;;;;;;;;;27.49;31.97;100699.41;5387890;32;34088;-85
2023/06/05 10:06:38;;;;;;;;;;;;;;;27.74;31.46;100697.69;5370607;32;32889;-76
2023/06/05 10:09:41;;;;;;;;;;;;;;;27.16;32.66;100692.16;5370559;32;44408;-79
2023/06/05 10:12:43;;;;;;;;;;;;;;;27.05;32.61;100689.69;5391313;32;44906;-77
2023/06/05 10:15:45;;;;;;;;;;;;;;;28.45;30.65;100680.13;5382252;32;33147;-84
2023/06/05 10:18:47;;;;;;;;;;;;;;;29.12;28.87;100675.34;5372420;32;32800;-72
2023/06/05 10:21:50;;;;;;;;;;;;;;;28.75;30.02;100670.47;5372431;32;33072;-73
2023/06/05 10:24:54;;;;;;;;;;;;;;;28.90;29.21;100667.06;5378747;32;33084;-74
2023/06/05 10:28:04;;;;;;;;;;;;;;;30.36;27.19;100663.72;5392932;32;32599;-74
2023/06/05 10:31:19;;;;;;;;;;;;;;;30.74;26.64;100655.62;5389989;32;32273;-74
2023/06/05 10:34:47;;;;;;;;;;;;;;;32.64;22.92;100651.88;5384171;32;33020;-75
2023/06/05 10:38:20;;;;;;;;;;;;;;;30.94;25.99;100636.94;5372508;32;36180;-70
2023/06/05 10:41:22;;;;;;;;;;;;;;;32.30;23.88;100639.84;5368868;32;33542;-80
2023/06/05 10:44:43;;;;;;;;;;;;;;;33.62;21.10;100628.16;5373129;32;32983;-78
2023/06/05 10:47:48;;;;;;;;;;;;;;;32.44;20.36;100629.94;5370789;32;44430;-70
2023/06/05 10:50:50;;;;;;;;;;;;;;;32.94;19.71;100635.38;5371834;32;32977;-73
2023/06/05 10:53:53;;;;;;;;;;;;;;;33.06;19.79;100625.59;5380300;32;32972;-68
2023/06/05 10:56:56;;;;;;;;;;;;;;;34.36;17.30;100632.75;5385050;32;34167;-67
2023/06/05 11:00:06;;;;;;;;;;;;;;;34.34;17.95;100629.38;5390514;32;33275;-85
2023/06/05 11:03:08;;;;;;;;;;;;;;;35.40;16.81;100641.00;5373723;32;32332;-74
2023/06/05 11:06:12;;;;;;;;;;;;;;;34.70;17.42;100629.78;5379237;32;44394;-80
2023/06/05 11:09:14;;;;;;;;;;;;;;;35.79;16.81;100631.78;5375725;32;33035;-77
2023/06/05 11:12:16;;;;;;;;;;;;;;;35.05;17.10;100620.53;5386414;32;32408;-80
2023/06/05 11:15:22;;;;;;;;;;;;;;;34.65;17.83;100620.56;5380222;32;34160;-84
2023/06/05 11:18:28;;;;;;;;;;;;;;;33.42;18.56;100631.66;5375669;32;33278;-78
2023/06/05 11:21:57;;;;;;;;;;;;;;;33.16;19.33;100617.88;5394359;32;32878;-78
2023/06/05 11:25:15;;;;;;;;;;;;;;;32.07;21.12;100634.63;5381645;32;33138;-75
2023/06/05 11:28:36;;;;;;;;;;;;;;;31.87;21.31;100622.69;5368079;32;44936;-82
2023/06/05 11:31:38;;;;;;;;;;;;;;;32.85;20.61;100621.06;5389840;32;34482;-72
2023/06/05 11:34:46;;;;;;;;;;;;;;;33.19;20.60;100622.94;5377834;32;44421;-80
2023/06/05 11:38:06;;;;;;;;;;;;;;;33.97;19.97;100622.63;5352314;32;33841;-82
2023/06/05 11:41:09;;;;;;;;;;;;;;;33.77;20.29;100614.38;5383823;32;32563;-87
2023/06/05 11:44:11;;;;;;;;;;;;;;;33.33;20.97;100594.72;5379169;32;45183;-70
2023/06/05 11:47:23;;;;;;;;;;;;;;;31.20;23.15;100604.72;5386623;32;33443;-67
2023/06/05 11:50:30;;;;;;;;;;;;;;;31.75;22.76;100599.72;5372972;32;33296;-73
2023/06/05 11:53:32;;;;;;;;;;;;;;;32.01;22.62;100607.34;5373023;32;33079;-74
2023/06/05 11:56:37;;;;;;;;;;;;;;;31.42;23.90;100608.34;5373865;32;32945;-72
2023/06/05 11:59:42;;;;;;;;;;;;;;;33.47;21.14;100592.91;5377917;32;45421;-71
2023/06/05 12:02:44;;;;;;;;;;;;;;;33.08;21.52;100590.84;5379059;32;34563;-70
2023/06/05 12:05:47;;;;;;;;;;;;;;;32.82;21.64;100586.06;5369213;32;33010;-71
2023/06/05 12:08:49;;;;;;;;;;;;;;;30.95;24.23;100589.75;5375372;32;33386;-77
2023/06/05 12:11:51;;;;;;;;;;;;;;;30.61;24.63;100582.97;5385897;32;32762;-72
2023/06/05 12:14:54;;;;;;;;;;;;;;;29.27;26.25;100582.59;5378793;32;33287;-73
2023/06/05 12:17:56;;;;;;;;;;;;;;;29.73;25.76;100569.16;5391218;32;33172;-79
2023/06/05 12:20:59;;;;;;;;;;;;;;;28.85;26.48;100570.19;5371692;32;34033;-70
2023/06/05 12:24:02;;;;;;;;;;;;;;;29.05;26.24;100568.81;5385173;32;33017;-79
2023/06/05 12:27:06;;;;;;;;;;;;;;;29.66;25.88;100566.31;5380377;32;33051;-76
2023/06/05 12:30:09;;;;;;;;;;;;;;;30.54;24.79;100562.22;5390996;32;34677;-72
2023/06/05 12:33:11;;;;;;;;;;;;;;;30.94;23.85;100559.06;5388950;32;44812;-75
2023/06/05 12:36:17;;;;;;;;;;;;;;;30.88;23.71;100557.09;5395830;32;33029;-75
2023/06/05 12:39:20;;;;;;;;;;;;;;;30.61;24.22;100552.31;5387690;32;33357;-77
2023/06/05 12:42:22;;;;;;;;;;;;;;;30.51;24.21;100549.84;5387786;32;34608;-77
2023/06/05 12:45:24;;;;;;;;;;;;;;;30.38;24.37;100549.66;5394921;32;34706;-78
2023/06/05 12:48:26;;;;;;;;;;;;;;;29.38;26.01;100549.72;5388882;32;33264;-75
2023/06/05 12:51:28;;;;;;;;;;;;;;;29.53;25.66;100550.66;5397759;32;33174;-79
2023/06/05 12:54:31;;;;;;;;;;;;;;;30.62;23.38;100548.56;5390658;32;32987;-82
2023/06/05 12:57:34;;;;;;;;;;;;;;;30.65;23.31;100540.88;5384722;32;33026;-82
2023/06/05 13:00:37;;;;;;;;;;;;;;;29.48;24.64;100536.78;5363481;32;32160;-79
2023/06/05 13:03:39;;;;;;;;;;;;;;;30.18;23.79;100530.38;5375275;32;32991;-77
2023/06/05 13:06:42;;;;;;;;;;;;;;;29.79;24.17;100525.09;5379659;32;44528;-80
2023/06/05 13:09:44;;;;;;;;;;;;;;;29.61;24.55;100522.66;5389150;32;33993;-81
2023/06/05 13:12:48;;;;;;;;;;;;;;;29.44;24.66;100523.78;5381495;32;33125;-81
2023/06/05 13:15:50;;;;;;;;;;;;;;;29.33;24.53;100531.28;5376885;32;32628;-77
2023/06/05 13:18:52;;;;;;;;;;;;;;;29.58;23.92;100520.34;5371684;32;33317;-74
2023/06/05 13:21:57;;;;;;;;;;;;;;;29.75;23.44;100516.47;5383596;32;33502;-74
2023/06/05 13:25:02;;;;;;;;;;;;;;;29.81;23.59;100510.31;5365233;32;33839;-76
2023/06/05 13:28:04;;;;;;;;;;;;;;;30.02;23.17;100511.53;5377547;32;33120;-84
2023/06/05 13:31:22;;;;;;;;;;;;;;;28.50;25.01;100520.94;5380017;32;33307;-79
2023/06/05 13:34:27;;;;;;;;;;;;;;;28.98;24.31;100505.63;5363537;32;33118;-75
2023/06/05 13:37:32;;;;;;;;;;;;;;;29.48;23.46;100511.56;5395299;32;34211;-71
2023/06/05 13:40:34;;;;;;;;;;;;;;;29.01;24.09;100518.78;5385202;32;32995;-83
2023/06/05 13:43:36;;;;;;;;;;;;;;;29.40;23.76;100507.91;5378012;32;33425;-76
2023/06/05 13:46:40;;;;;;;;;;;;;;;29.08;24.31;100510.78;5374878;32;33093;-75
2023/06/05 13:49:42;;;;;;;;;;;;;;;29.13;23.90;100517.38;5398181;32;44350;-78
2023/06/05 13:52:47;;;;;;;;;;;;;;;29.18;23.63;100503.31;5378569;32;34843;-74
2023/06/05 13:55:49;;;;;;;;;;;;;;;29.34;23.56;100505.06;5394238;32;32911;-70
2023/06/05 13:58:52;;;;;;;;;;;;;;;29.58;23.59;100493.25;5394013;32;33119;-70
2023/06/05 14:01:54;;;;;;;;;;;;;;;29.56;23.88;100504.28;5390909;32;32724;-73
2023/06/05 14:04:56;;;;;;;;;;;;;;;29.76;23.43;100501.91;5393207;32;33090;-70
2023/06/05 14:07:59;;;;;;;;;;;;;;;29.91;23.26;100491.13;5381787;32;34167;-68
2023/06/05 14:11:01;;;;;;;;;;;;;;;29.80;23.13;100495.09;5397866;32;32965;-73
2023/06/05 14:14:03;;;;;;;;;;;;;;;29.00;24.32;100497.31;5392567;32;33175;-74
2023/06/05 14:17:06;;;;;;;;;;;;;;;29.54;23.27;100487.34;5391581;32;34604;-80
2023/06/05 14:20:08;;;;;;;;;;;;;;;29.07;24.06;100488.31;5388604;32;32994;-80
2023/06/05 14:23:14;;;;;;;;;;;;;;;29.80;23.30;100486.97;5394869;32;44557;-75
2023/06/05 14:26:16;;;;;;;;;;;;;;;29.40;23.69;100479.97;5393189;32;33123;-79
2023/06/05 14:29:18;;;;;;;;;;;;;;;29.15;24.23;100479.28;5376693;32;33065;-79
2023/06/05 14:32:20;;;;;;;;;;;;;;;29.44;23.88;100480.47;5395915;32;34408;-73
2023/06/05 14:35:23;;;;;;;;;;;;;;;28.66;24.70;100481.34;5391594;32;32987;-75
2023/06/05 14:38:25;;;;;;;;;;;;;;;29.34;23.34;100472.56;5352931;32;32982;-76
2023/06/05 14:41:28;;;;;;;;;;;;;;;29.40;22.94;100472.69;5392868;32;33040;-71
2023/06/05 14:44:30;;;;;;;;;;;;;;;29.19;23.24;100460.84;5372226;32;33081;-70
2023/06/05 14:47:32;;;;;;;;;;;;;;;28.90;23.76;100477.72;5399289;32;36331;-72
2023/06/05 14:50:36;;;;;;;;;;;;;;;28.57;24.23;100478.69;5378533;32;32890;-74
2023/06/05 14:53:38;;;;;;;;;;;;;;;28.78;23.97;100477.25;5391326;32;32166;-76
2023/06/05 14:56:40;;;;;;;;;;;;;;;28.41;24.62;100469.81;5379772;32;43207;-76
2023/06/05 14:59:42;;;;;;;;;;;;;;;28.84;23.86;100468.44;5370989;32;34816;-84
2023/06/05 15:02:45;;;;;;;;;;;;;;;28.92;23.87;100464.88;5371337;32;33287;-90
2023/06/05 15:05:48;;;;;;;;;;;;;;;28.36;24.57;100462.22;5386232;32;31883;-83
2023/06/05 15:08:50;;;;;;;;;;;;;;;29.00;23.95;100462.16;5382590;32;34262;-87
2023/06/05 15:11:55;;;;;;;;;;;;;;;29.05;23.96;100467.87;5383976;32;33217;-82
2023/06/05 15:14:57;;;;;;;;;;;;;;;28.50;24.67;100466.88;5391135;32;34145;-88
2023/06/05 15:18:21;;;;;;;;;;;;;;;28.62;24.30;100464.66;5390657;32;33033;-82
2023/06/05 15:21:26;;;;;;;;;;;;;;;28.57;24.30;100456.22;5379887;32;34247;-88
2023/06/05 15:24:28;;;;;;;;;;;;;;;28.83;24.04;100453.22;5388747;32;34700;-82
2023/06/05 15:27:30;;;;;;;;;;;;;;;28.75;23.99;100448.72;5380425;32;33058;-89
2023/06/05 15:30:33;;;;;;;;;;;;;;;28.67;24.22;100450.63;5381484;32;32672;-91
2023/06/05 15:33:35;;;;;;;;;;;;;;;28.71;24.25;100441.94;5376624;32;33419;-89
2023/06/05 15:36:37;;;;;;;;;;;;;;;28.53;24.47;100442.22;5386218;32;33265;-84
2023/06/05 15:39:42;;;;;;;;;;;;;;;28.86;24.03;100444.78;5388957;32;45294;-83
2023/06/05 15:42:45;;;;;;;;;;;;;;;28.49;24.38;100442.72;5383726;32;34129;-83